createdAt,value
2019-05-25T00:00:53.816Z,8.40
2019-05-25T00:03:22.240Z,7.93
2019-05-25T00:05:50.656Z,8.73
2019-05-25T00:08:19.046Z,8.57
2019-05-25T00:10:47.465Z,8.57
2019-05-25T00:13:15.855Z,8.53
2019-05-25T00:15:44.306Z,8.30
2019-05-25T00:18:12.699Z,8.23
2019-05-25T00:20:41.089Z,8.47
2019-05-25T00:23:09.484Z,8.97
2019-05-25T00:25:37.880Z,8.57
2019-05-25T00:28:06.260Z,8.40
2019-05-25T00:30:34.643Z,8.60
2019-05-25T00:33:03.036Z,8.70
2019-05-25T00:35:31.429Z,8.60
2019-05-25T00:37:59.861Z,8.47
2019-05-25T00:40:28.265Z,8.33
2019-05-25T00:42:56.682Z,8.40
2019-05-25T00:45:25.108Z,8.40
2019-05-25T00:47:53.873Z,8.40
2019-05-25T00:50:22.262Z,8.60
2019-05-25T00:52:50.667Z,8.67
2019-05-25T00:55:19.086Z,8.93
2019-05-25T00:57:47.532Z,8.60
2019-05-25T01:00:17.464Z,8.27
2019-05-25T01:02:45.897Z,8.83
2019-05-25T01:05:14.373Z,9.47
2019-05-25T01:07:42.857Z,8.73
2019-05-25T01:10:11.580Z,9.20
2019-05-25T01:12:39.966Z,9.10
2019-05-25T01:15:09.198Z,9.17
2019-05-25T01:17:37.655Z,9.30
2019-05-25T01:20:10.844Z,9.38
2019-05-25T01:22:39.668Z,8.63
2019-05-25T01:25:08.786Z,8.63
2019-05-25T01:27:37.174Z,8.57
2019-05-25T01:30:11.181Z,8.63
2019-05-25T01:32:39.671Z,8.97
2019-05-25T01:35:08.401Z,8.60
2019-05-25T01:37:36.789Z,8.83
2019-05-25T01:40:20.612Z,8.60
2019-05-25T01:42:48.994Z,9.57
2019-05-25T01:45:17.531Z,8.90
2019-05-25T01:47:45.913Z,9.23
2019-05-25T01:50:14.429Z,8.57
2019-05-25T01:52:42.816Z,8.87
2019-05-25T01:55:11.271Z,9.63
2019-05-25T01:57:39.660Z,9.60
2019-05-25T02:00:09.262Z,9.20
2019-05-25T02:02:37.643Z,9.20
2019-05-25T02:05:06.770Z,9.27
2019-05-25T02:07:35.162Z,9.30
2019-05-25T02:10:06.195Z,9.40
2019-05-25T02:12:34.580Z,9.85
2019-05-25T02:15:03.462Z,10.07
2019-05-25T02:17:31.814Z,10.20
2019-05-25T02:20:00.209Z,9.10
2019-05-25T02:22:28.592Z,9.23
2019-05-25T02:24:56.985Z,9.70
2019-05-25T02:27:26.299Z,9.57
2019-05-25T02:29:54.685Z,9.83
2019-05-25T02:32:23.078Z,9.47
2019-05-25T02:34:51.469Z,9.50
2019-05-25T02:37:19.860Z,9.73
2019-05-25T02:39:48.257Z,9.30
2019-05-25T02:42:16.642Z,10.13
2019-05-25T02:44:45.042Z,9.13
2019-05-25T02:47:13.431Z,9.57
2019-05-25T02:49:41.837Z,9.43
2019-05-25T02:52:10.220Z,9.93
2019-05-25T02:54:38.627Z,9.97
2019-05-25T02:57:07.017Z,10.17
2019-05-25T02:59:35.432Z,10.33
2019-05-25T03:02:03.961Z,9.97
2019-05-25T03:04:32.363Z,9.87
2019-05-25T03:07:02.095Z,10.47
2019-05-25T03:09:32.631Z,10.93
2019-05-25T03:12:01.357Z,10.60
2019-05-25T03:14:29.813Z,11.00
2019-05-25T03:16:58.210Z,10.67
2019-05-25T03:19:26.597Z,10.27
2019-05-25T03:21:55.050Z,10.73
2019-05-25T03:24:23.453Z,10.63
2019-05-25T03:26:51.838Z,10.90
2019-05-25T03:29:20.238Z,10.67
2019-05-25T03:31:48.636Z,11.47
2019-05-25T03:34:17.032Z,11.47
2019-05-25T03:36:45.423Z,11.17
2019-05-25T03:39:13.809Z,12.53
2019-05-25T03:41:42.211Z,12.55
2019-05-25T03:44:10.599Z,12.13
2019-05-25T03:46:38.992Z,11.60
2019-05-25T03:49:07.387Z,11.47
2019-05-25T03:51:35.776Z,12.40
2019-05-25T03:54:04.165Z,11.37
2019-05-25T03:56:32.552Z,12.23
2019-05-25T03:59:00.947Z,12.37
2019-05-25T04:01:29.425Z,12.33
2019-05-25T04:03:57.823Z,12.20
2019-05-25T04:06:26.217Z,12.73
2019-05-25T04:08:54.605Z,12.67
2019-05-25T04:11:23.000Z,12.13
2019-05-25T04:13:51.390Z,12.75
2019-05-25T04:16:19.785Z,12.20
2019-05-25T04:18:48.191Z,11.60
2019-05-25T04:21:16.591Z,12.07
2019-05-25T04:23:44.976Z,12.20
2019-05-25T04:26:21.944Z,11.63
2019-05-25T04:28:43.492Z,12.00
2019-05-25T04:31:11.884Z,11.50
2019-05-25T04:33:40.272Z,12.07
2019-05-25T04:36:08.727Z,11.90
2019-05-25T04:38:37.143Z,12.23
2019-05-25T04:41:05.538Z,11.53
2019-05-25T04:43:33.935Z,12.10
2019-05-25T04:46:02.422Z,11.30
2019-05-25T04:48:30.807Z,11.10
2019-05-25T04:50:59.213Z,11.03
2019-05-25T04:53:27.596Z,11.73
2019-05-25T04:55:55.986Z,12.03
2019-05-25T04:58:24.381Z,10.93
2019-05-25T05:00:52.783Z,10.67
2019-05-25T05:03:21.175Z,11.43
2019-05-25T05:05:49.564Z,10.60
2019-05-25T05:08:17.958Z,11.20
2019-05-25T05:10:46.347Z,10.37
2019-05-25T05:13:14.743Z,11.03
2019-05-25T05:15:43.146Z,11.00
2019-05-25T05:18:11.603Z,10.83
2019-05-25T05:20:39.943Z,10.77
2019-05-25T05:23:08.332Z,10.57
2019-05-25T05:25:36.740Z,11.90
2019-05-25T05:28:05.120Z,12.00
2019-05-25T05:30:34.659Z,11.30
2019-05-25T05:33:03.193Z,11.57
2019-05-25T05:35:33.329Z,11.23
2019-05-25T05:38:04.990Z,11.73
2019-05-25T05:40:34.227Z,12.05
2019-05-25T05:43:05.679Z,11.47
2019-05-25T05:45:35.910Z,10.77
2019-05-25T05:48:04.801Z,11.23
2019-05-25T05:50:35.162Z,11.20
2019-05-25T05:53:03.844Z,11.00
2019-05-25T05:55:32.573Z,11.40
2019-05-25T05:58:02.376Z,11.63
2019-05-25T06:00:30.940Z,11.90
2019-05-25T06:02:59.335Z,10.70
2019-05-25T06:05:27.732Z,10.97
2019-05-25T06:07:56.125Z,11.10
2019-05-25T06:10:24.529Z,11.03
2019-05-25T06:12:52.927Z,10.53
2019-05-25T06:15:22.326Z,10.43
2019-05-25T06:17:50.744Z,10.23
2019-05-25T06:20:19.111Z,11.03
2019-05-25T06:22:47.505Z,10.93
2019-05-25T06:25:16.340Z,10.70
2019-05-25T06:27:44.737Z,11.60
2019-05-25T06:30:13.365Z,11.13
2019-05-25T06:32:41.769Z,11.50
2019-05-25T06:35:11.093Z,10.70
2019-05-25T06:37:39.484Z,10.67
2019-05-25T06:40:09.121Z,10.87
2019-05-25T06:42:37.501Z,10.77
2019-05-25T06:45:08.212Z,10.70
2019-05-25T06:47:36.672Z,11.80
2019-05-25T06:50:07.459Z,11.20
2019-05-25T06:52:35.874Z,11.90
2019-05-25T06:55:08.633Z,11.53
2019-05-25T06:57:42.981Z,11.20
2019-05-25T07:00:08.218Z,11.70
2019-05-25T07:02:36.678Z,11.40
2019-05-25T07:05:08.453Z,10.37
2019-05-25T07:07:37.025Z,10.63
2019-05-25T07:10:07.467Z,11.80
2019-05-25T07:12:35.848Z,10.57
2019-05-25T07:15:07.383Z,10.10
2019-05-25T07:17:35.771Z,11.33
2019-05-25T07:20:06.504Z,10.13
2019-05-25T07:22:34.906Z,10.78
2019-05-25T07:25:04.264Z,10.93
2019-05-25T07:27:32.657Z,11.30
2019-05-25T07:30:01.059Z,10.70
2019-05-25T07:32:29.439Z,10.70
2019-05-25T07:34:57.835Z,11.10
2019-05-25T07:37:26.227Z,11.30
2019-05-25T07:39:54.625Z,11.43
2019-05-25T07:42:23.021Z,10.53
2019-05-25T07:44:51.413Z,10.65
2019-05-25T07:47:19.814Z,10.65
2019-05-25T07:49:48.195Z,10.20
2019-05-25T07:52:16.583Z,9.93
2019-05-25T07:54:45.002Z,11.10
2019-05-25T07:57:13.413Z,11.43
2019-05-25T07:59:41.805Z,10.90
2019-05-25T08:02:10.203Z,10.10
2019-05-25T08:04:38.608Z,10.68
2019-05-25T08:07:07.002Z,11.10
2019-05-25T08:09:35.435Z,11.12
2019-05-25T08:12:03.997Z,11.40
2019-05-25T08:14:32.390Z,11.80
2019-05-25T08:17:00.809Z,12.37
2019-05-25T08:19:29.196Z,11.10
2019-05-25T08:21:57.589Z,10.60
2019-05-25T08:24:25.980Z,11.37
2019-05-25T08:26:54.371Z,11.23
2019-05-25T08:29:22.762Z,10.03
2019-05-25T08:31:51.158Z,11.28
2019-05-25T08:34:20.471Z,10.90
2019-05-25T08:36:48.866Z,10.30
2019-05-25T08:39:17.268Z,10.17
2019-05-25T08:41:45.814Z,10.10
2019-05-25T08:44:14.257Z,9.50
2019-05-25T08:46:42.647Z,9.75
2019-05-25T08:49:11.036Z,9.33
2019-05-25T08:51:39.436Z,9.50
2019-05-25T08:54:07.826Z,10.37
2019-05-25T08:56:36.215Z,9.40
2019-05-25T08:59:04.687Z,9.80
2019-05-25T09:01:33.142Z,9.17
2019-05-25T09:04:01.597Z,9.17
2019-05-25T09:06:29.990Z,9.10
2019-05-25T09:08:58.371Z,8.10
2019-05-25T09:11:26.762Z,8.63
2019-05-25T09:13:55.147Z,8.33
2019-05-25T09:16:23.588Z,7.67
2019-05-25T09:18:51.944Z,7.33
2019-05-25T09:21:20.332Z,8.03
2019-05-25T09:23:48.988Z,7.40
2019-05-25T09:26:17.381Z,6.87
2019-05-25T09:28:45.769Z,7.35
2019-05-25T09:31:14.274Z,7.43
2019-05-25T09:33:42.741Z,6.83
2019-05-25T09:36:11.123Z,6.10
2019-05-25T09:38:43.120Z,5.30
2019-05-25T09:41:09.632Z,4.50
2019-05-25T09:43:38.016Z,4.83
2019-05-25T09:46:06.407Z,5.80
2019-05-25T09:48:37.948Z,6.07
2019-05-25T09:51:04.930Z,5.77
2019-05-25T09:53:33.307Z,7.17
2019-05-25T09:56:01.690Z,6.55
2019-05-25T09:58:30.080Z,6.27
2019-05-25T10:00:58.488Z,6.57
2019-05-25T10:03:26.867Z,5.97
2019-05-25T10:05:55.311Z,5.60
2019-05-25T10:08:23.696Z,5.67
2019-05-25T10:10:52.085Z,6.23
2019-05-25T10:13:20.514Z,5.63
2019-05-25T10:15:48.900Z,4.27
2019-05-25T10:18:17.311Z,4.00
2019-05-25T10:20:46.614Z,3.90
2019-05-25T10:23:15.008Z,4.60
2019-05-25T10:25:43.396Z,4.87
2019-05-25T10:28:11.782Z,5.37
2019-05-25T10:30:40.170Z,4.93
2019-05-25T10:33:08.557Z,4.87
2019-05-25T10:35:36.936Z,4.47
2019-05-25T10:38:05.416Z,4.40
2019-05-25T10:40:33.810Z,4.60
2019-05-25T10:43:03.109Z,4.90
2019-05-25T10:45:31.504Z,5.00
2019-05-25T10:47:59.953Z,4.50
2019-05-25T10:50:28.354Z,4.40
2019-05-25T10:52:56.770Z,4.20
2019-05-25T10:55:25.198Z,3.80
2019-05-25T10:57:53.601Z,4.30
2019-05-25T11:00:22.427Z,4.23
2019-05-25T11:02:50.866Z,4.10
2019-05-25T11:05:19.621Z,4.47
2019-05-25T11:07:48.019Z,4.50
2019-05-25T11:10:17.015Z,4.63
2019-05-25T11:12:45.413Z,4.42
2019-05-25T11:15:14.303Z,4.10
2019-05-25T11:17:42.695Z,4.33
2019-05-25T11:20:11.942Z,4.53
2019-05-25T11:22:40.367Z,4.00
2019-05-25T11:25:09.715Z,4.40
2019-05-25T11:27:38.147Z,4.27
2019-05-25T11:30:09.854Z,4.10
2019-05-25T11:32:38.274Z,4.37
2019-05-25T11:35:08.389Z,4.20
2019-05-25T11:37:36.777Z,4.10
2019-05-25T11:40:07.665Z,4.37
2019-05-25T11:42:36.041Z,4.33
2019-05-25T11:45:06.579Z,4.10
2019-05-25T11:47:34.973Z,4.63
2019-05-25T11:50:04.711Z,4.13
2019-05-25T11:52:33.165Z,3.83
2019-05-25T11:55:01.574Z,2.90
2019-05-25T11:57:29.939Z,2.80
2019-05-25T11:59:58.321Z,2.20
2019-05-25T12:02:26.714Z,2.00
2019-05-25T12:04:55.112Z,1.70
2019-05-25T12:07:23.495Z,1.90
2019-05-25T12:09:51.877Z,1.77
2019-05-25T12:12:20.260Z,1.70
2019-05-25T12:14:48.654Z,1.80
2019-05-25T12:17:17.035Z,1.80
2019-05-25T12:19:45.429Z,1.90
2019-05-25T12:22:13.843Z,2.00
2019-05-25T12:24:43.152Z,2.17
2019-05-25T12:27:11.562Z,1.80
2019-05-25T12:29:39.966Z,2.20
2019-05-25T12:32:08.339Z,1.90
2019-05-25T12:34:36.734Z,2.20
2019-05-25T12:37:05.183Z,1.90
2019-05-25T12:39:34.053Z,2.12
2019-05-25T12:42:02.439Z,2.20
2019-05-25T12:44:34.268Z,2.33
2019-05-25T12:47:01.003Z,2.58
2019-05-25T12:49:29.332Z,2.75
2019-05-25T12:51:57.720Z,2.60
2019-05-25T12:54:26.103Z,3.08
2019-05-25T12:56:54.489Z,3.70
2019-05-25T12:59:22.879Z,3.30
2019-05-25T13:01:51.259Z,3.70
2019-05-25T13:04:19.641Z,3.45
2019-05-25T13:06:48.026Z,3.98
2019-05-25T13:09:16.410Z,3.58
2019-05-25T13:11:44.807Z,3.67
2019-05-25T13:14:14.952Z,4.45
2019-05-25T13:16:43.306Z,4.70
2019-05-25T13:19:11.699Z,4.93
2019-05-25T13:21:40.086Z,4.90
2019-05-25T13:24:08.470Z,4.70
2019-05-25T13:26:39.525Z,5.17
2019-05-25T13:29:07.922Z,5.30
2019-05-25T13:31:36.298Z,5.00
2019-05-25T13:34:04.682Z,5.30
2019-05-25T13:36:33.071Z,4.70
2019-05-25T13:39:01.449Z,4.20
2019-05-25T13:41:29.837Z,4.40
2019-05-25T13:43:58.217Z,4.40
2019-05-25T13:46:26.654Z,4.43
2019-05-25T13:48:55.072Z,4.47
2019-05-25T13:51:23.465Z,3.80
2019-05-25T13:53:51.810Z,3.90
2019-05-25T13:56:20.195Z,4.77
2019-05-25T13:58:48.650Z,4.85
2019-05-25T14:01:27.926Z,4.13
2019-05-25T14:03:47.154Z,4.50
2019-05-25T14:06:16.530Z,3.63
2019-05-25T14:08:44.911Z,3.27
2019-05-25T14:11:13.298Z,3.33
2019-05-25T14:13:41.714Z,3.47
2019-05-25T14:16:10.104Z,3.50
2019-05-25T14:18:38.557Z,3.90
2019-05-25T14:21:06.941Z,3.53
2019-05-25T14:23:35.564Z,3.43
2019-05-25T14:26:04.985Z,3.53
2019-05-25T14:28:33.385Z,3.57
2019-05-25T14:31:01.769Z,3.70
2019-05-25T14:33:30.165Z,3.70
2019-05-25T14:35:58.549Z,3.73
2019-05-25T14:38:26.949Z,4.13
2019-05-25T14:40:55.321Z,3.90
2019-05-25T14:43:23.715Z,4.20
2019-05-25T14:45:53.395Z,4.47
2019-05-25T14:48:21.978Z,4.57
2019-05-25T14:50:50.361Z,4.20
2019-05-25T14:53:18.745Z,4.33
2019-05-25T14:55:47.137Z,4.97
2019-05-25T14:58:15.517Z,5.10
2019-05-25T15:00:44.150Z,5.50
2019-05-25T15:03:12.572Z,4.93
2019-05-25T15:05:40.957Z,5.13
2019-05-25T15:08:09.413Z,4.87
2019-05-25T15:10:37.789Z,5.13
2019-05-25T15:13:06.319Z,5.00
2019-05-25T15:15:34.697Z,5.10
2019-05-25T15:18:03.157Z,5.15
2019-05-25T15:20:31.542Z,5.40
2019-05-25T15:22:59.957Z,4.60
2019-05-25T15:25:28.351Z,4.97
2019-05-25T15:27:57.290Z,4.73
2019-05-25T15:30:25.955Z,5.03
2019-05-25T15:32:54.406Z,4.60
2019-05-25T15:35:22.789Z,4.40
2019-05-25T15:37:51.169Z,3.90
2019-05-25T15:40:19.696Z,3.77
2019-05-25T15:42:48.105Z,4.10
2019-05-25T15:45:16.623Z,4.20
2019-05-25T15:47:45.098Z,4.10
2019-05-25T15:50:15.607Z,3.80
2019-05-25T15:52:44.001Z,4.00
2019-05-25T15:55:12.449Z,3.93
2019-05-25T15:57:40.833Z,3.80
2019-05-25T16:00:14.344Z,4.00
2019-05-25T16:02:42.907Z,3.47
2019-05-25T16:05:11.721Z,3.63
2019-05-25T16:07:43.160Z,3.60
2019-05-25T16:10:11.774Z,3.93
2019-05-25T16:12:40.182Z,3.97
2019-05-25T16:15:09.599Z,3.90
2019-05-25T16:17:38.634Z,4.00
2019-05-25T16:20:07.451Z,4.70
2019-05-25T16:22:35.842Z,3.77
2019-05-25T16:25:06.462Z,3.90
2019-05-25T16:27:34.854Z,3.80
2019-05-25T16:30:04.209Z,3.10
2019-05-25T16:32:32.607Z,3.00
2019-05-25T16:35:01.009Z,2.93
2019-05-25T16:37:29.471Z,2.83
2019-05-25T16:39:57.855Z,3.20
2019-05-25T16:42:26.244Z,2.93
2019-05-25T16:44:54.622Z,2.77
2019-05-25T16:47:23.027Z,3.03
2019-05-25T16:49:51.432Z,3.00
2019-05-25T16:52:19.843Z,2.83
2019-05-25T16:54:48.241Z,3.23
2019-05-25T16:57:16.629Z,3.23
2019-05-25T16:59:45.008Z,3.27
2019-05-25T17:02:13.391Z,3.27
2019-05-25T17:04:41.777Z,3.30
2019-05-25T17:07:10.171Z,3.73
2019-05-25T17:09:38.571Z,3.20
2019-05-25T17:12:06.944Z,4.00
2019-05-25T17:14:35.326Z,4.00
2019-05-25T17:17:03.780Z,4.20
2019-05-25T17:19:32.162Z,4.63
2019-05-25T17:22:00.564Z,4.80
2019-05-25T17:24:28.979Z,4.60
2019-05-25T17:26:57.340Z,5.03
2019-05-25T17:29:25.723Z,4.87
2019-05-25T17:31:54.107Z,5.10
2019-05-25T17:34:22.493Z,5.10
2019-05-25T17:36:50.892Z,4.97
2019-05-25T17:39:19.283Z,4.73
2019-05-25T17:41:47.699Z,5.40
2019-05-25T17:44:16.084Z,4.83
2019-05-25T17:46:44.464Z,5.30
2019-05-25T17:49:12.918Z,4.87
2019-05-25T17:51:41.336Z,4.80
2019-05-25T17:54:09.717Z,4.77
2019-05-25T17:56:39.381Z,4.23
2019-05-25T17:59:07.750Z,4.70
2019-05-25T18:01:36.137Z,4.77
2019-05-25T18:04:07.154Z,4.50
2019-05-25T18:06:34.808Z,4.43
2019-05-25T18:09:03.203Z,4.50
2019-05-25T18:11:31.590Z,4.60
2019-05-25T18:14:00.007Z,4.40
2019-05-25T18:16:28.386Z,4.20
2019-05-25T18:18:56.772Z,4.33
2019-05-25T18:21:25.154Z,4.47
2019-05-25T18:23:53.565Z,4.83
2019-05-25T18:26:21.953Z,4.53
2019-05-25T18:28:50.348Z,4.17
2019-05-25T18:31:18.733Z,4.60
2019-05-25T18:33:47.113Z,4.20
2019-05-25T18:36:15.499Z,4.37
2019-05-25T18:38:43.882Z,4.77
2019-05-25T18:41:12.281Z,4.60
2019-05-25T18:43:40.665Z,4.53
2019-05-25T18:46:09.048Z,4.40
2019-05-25T18:48:37.430Z,4.60
2019-05-25T18:51:05.821Z,4.67
2019-05-25T18:53:34.953Z,4.60
2019-05-25T18:56:03.364Z,4.40
2019-05-25T18:58:31.719Z,4.50
2019-05-25T19:01:00.098Z,4.60
2019-05-25T19:03:28.482Z,4.60
2019-05-25T19:05:56.866Z,4.47
2019-05-25T19:08:25.249Z,4.73
2019-05-25T19:10:53.698Z,4.43
2019-05-25T19:13:22.096Z,4.70
2019-05-25T19:15:50.471Z,5.00
2019-05-25T19:18:18.850Z,4.87
2019-05-25T19:20:47.244Z,5.37
2019-05-25T19:23:15.639Z,5.17
2019-05-25T19:25:44.122Z,5.03
2019-05-25T19:28:12.482Z,5.30
2019-05-25T19:30:40.866Z,5.10
2019-05-25T19:33:09.255Z,5.33
2019-05-25T19:35:37.688Z,5.43
2019-05-25T19:38:06.076Z,4.87
2019-05-25T19:40:34.585Z,5.43
2019-05-25T19:43:02.958Z,5.33
2019-05-25T19:45:32.874Z,5.50
2019-05-25T19:48:01.414Z,5.20
2019-05-25T19:50:29.813Z,5.37
2019-05-25T19:52:58.213Z,5.43
2019-05-25T19:55:26.621Z,5.70
2019-05-25T19:57:55.020Z,5.63
2019-05-25T20:00:23.651Z,5.50
2019-05-25T20:02:52.038Z,5.70
2019-05-25T20:05:20.563Z,5.87
2019-05-25T20:07:48.946Z,6.23
2019-05-25T20:10:17.989Z,6.20
2019-05-25T20:12:46.722Z,6.12
2019-05-25T20:15:15.330Z,5.70
2019-05-25T20:17:43.742Z,6.10
2019-05-25T20:20:12.358Z,6.10
2019-05-25T20:22:40.743Z,6.10
2019-05-25T20:25:09.200Z,5.90
2019-05-25T20:27:37.582Z,6.57
2019-05-25T20:30:09.494Z,6.43
2019-05-25T20:32:37.888Z,6.90
2019-05-25T20:35:07.214Z,6.37
2019-05-25T20:37:35.598Z,6.37
2019-05-25T20:40:07.822Z,7.00
2019-05-25T20:42:36.342Z,7.35
2019-05-25T20:45:07.064Z,7.30
2019-05-25T20:47:35.479Z,7.53
2019-05-25T20:50:05.844Z,7.87
2019-05-25T20:52:34.370Z,8.10
2019-05-25T20:55:02.786Z,8.40
2019-05-25T20:57:32.080Z,8.17
2019-05-25T21:00:00.500Z,7.67
2019-05-25T21:02:28.897Z,6.90
2019-05-25T21:04:57.266Z,6.47
2019-05-25T21:07:25.650Z,7.20
2019-05-25T21:09:54.038Z,6.60
2019-05-25T21:12:22.503Z,6.80
2019-05-25T21:14:50.887Z,6.80
2019-05-25T21:17:19.274Z,7.22
2019-05-25T21:19:53.625Z,7.17
2019-05-25T21:22:22.054Z,7.37
2019-05-25T21:24:51.303Z,7.40
2019-05-25T21:27:19.695Z,7.60
2019-05-25T21:29:48.078Z,7.40
2019-05-25T21:32:16.495Z,7.20
2019-05-25T21:34:44.910Z,7.37
2019-05-25T21:37:13.258Z,7.67
2019-05-25T21:39:41.648Z,7.97
2019-05-25T21:42:10.018Z,7.60
2019-05-25T21:44:38.400Z,7.57
2019-05-25T21:47:06.784Z,7.53
2019-05-25T21:49:35.163Z,7.80
2019-05-25T21:52:03.837Z,7.77
2019-05-25T21:54:32.220Z,7.33
2019-05-25T21:57:00.608Z,8.00
2019-05-25T21:59:32.479Z,7.90
2019-05-25T22:01:59.138Z,7.60
2019-05-25T22:04:27.523Z,8.03
2019-05-25T22:06:55.967Z,7.53
2019-05-25T22:09:24.348Z,7.83
2019-05-25T22:11:52.726Z,7.70
2019-05-25T22:14:21.106Z,7.77
2019-05-25T22:16:49.493Z,7.93
2019-05-25T22:19:17.894Z,7.73
2019-05-25T22:21:46.453Z,7.60
2019-05-25T22:24:14.827Z,7.10
2019-05-25T22:26:43.223Z,7.40
2019-05-25T22:29:11.605Z,7.30
2019-05-25T22:31:39.987Z,7.10
2019-05-25T22:34:08.384Z,7.20
2019-05-25T22:36:40.709Z,7.20
2019-05-25T22:39:08.205Z,7.50
2019-05-25T22:41:36.577Z,8.10
2019-05-25T22:44:06.012Z,7.50
2019-05-25T22:46:34.399Z,8.07
2019-05-25T22:49:02.880Z,7.90
2019-05-25T22:51:31.259Z,8.43
2019-05-25T22:53:59.648Z,8.63
2019-05-25T22:56:28.031Z,7.90
2019-05-25T22:58:56.418Z,8.13
2019-05-25T23:01:24.809Z,8.47
2019-05-25T23:03:53.266Z,7.57
2019-05-25T23:06:21.644Z,8.20
2019-05-25T23:08:50.099Z,7.77
2019-05-25T23:11:18.482Z,8.50
2019-05-25T23:13:46.871Z,7.67
2019-05-25T23:16:15.265Z,7.93
2019-05-25T23:18:43.658Z,8.30
2019-05-25T23:21:12.034Z,8.03
2019-05-25T23:23:40.424Z,8.50
2019-05-25T23:26:08.807Z,8.27
2019-05-25T23:28:37.190Z,7.90
2019-05-25T23:31:05.579Z,8.20
2019-05-25T23:33:33.981Z,8.70
2019-05-25T23:36:02.362Z,8.53
2019-05-25T23:38:30.747Z,8.77
2019-05-25T23:40:59.131Z,8.70
2019-05-25T23:43:27.521Z,8.47
2019-05-25T23:45:55.901Z,8.60
2019-05-25T23:48:24.295Z,9.37
2019-05-25T23:50:52.682Z,9.10
2019-05-25T23:53:21.085Z,8.97
2019-05-25T23:55:49.468Z,8.83
2019-05-25T23:58:17.862Z,8.83
